sensor_id;sensor_type;location;lat;lon;timestamp;temperature;humidity
15111;DHT22;7656;51.954;7.998;2023-02-01T00:00:35;6.10;99.90
15111;DHT22;7656;51.954;7.998;2023-02-01T00:04:57;6.20;99.90
15111;DHT22;7656;51.954;7.998;2023-02-01T00:09:18;6.20;99.90
15111;DHT22;7656;51.954;7.998;2023-02-01T00:13:41;6.20;99.90
15111;DHT22;7656;51.954;7.998;2023-02-01T00:18:02;6.10;99.90
15111;DHT22;7656;51.954;7.998;2023-02-01T00:22:24;6.10;99.90
15111;DHT22;7656;51.954;7.998;2023-02-01T00:26:45;6.10;99.90
15111;DHT22;7656;51.954;7.998;2023-02-01T00:31:06;6.20;99.90
15111;DHT22;7656;51.954;7.998;2023-02-01T00:35:27;6.20;99.90
15111;DHT22;7656;51.954;7.998;2023-02-01T00:39:48;6.20;99.90
15111;DHT22;7656;51.954;7.998;2023-02-01T00:44:10;6.30;99.90
15111;DHT22;7656;51.954;7.998;2023-02-01T00:48:31;6.40;99.90
15111;DHT22;7656;51.954;7.998;2023-02-01T00:52:52;6.40;99.90
15111;DHT22;7656;51.954;7.998;2023-02-01T00:57:13;6.50;99.90
15111;DHT22;7656;51.954;7.998;2023-02-01T01:01:34;6.40;99.90
15111;DHT22;7656;51.954;7.998;2023-02-01T01:05:57;6.20;99.90
15111;DHT22;7656;51.954;7.998;2023-02-01T01:10:18;6.10;99.90
15111;DHT22;7656;51.954;7.998;2023-02-01T01:14:39;6.10;99.90
15111;DHT22;7656;51.954;7.998;2023-02-01T01:19:00;6.30;99.90
15111;DHT22;7656;51.954;7.998;2023-02-01T01:23:22;6.30;99.90
15111;DHT22;7656;51.954;7.998;2023-02-01T01:27:43;6.30;99.90
15111;DHT22;7656;51.954;7.998;2023-02-01T01:32:04;6.30;99.90
15111;DHT22;7656;51.954;7.998;2023-02-01T01:36:26;6.40;99.90
15111;DHT22;7656;51.954;7.998;2023-02-01T01:40:48;6.30;99.90
15111;DHT22;7656;51.954;7.998;2023-02-01T01:45:22;6.20;99.90
15111;DHT22;7656;51.954;7.998;2023-02-01T01:49:51;6.20;99.90
15111;DHT22;7656;51.954;7.998;2023-02-01T01:54:22;6.40;99.90
15111;DHT22;7656;51.954;7.998;2023-02-01T01:58:47;6.40;99.90
15111;DHT22;7656;51.954;7.998;2023-02-01T02:03:27;6.30;99.90
15111;DHT22;7656;51.954;7.998;2023-02-01T02:07:58;6.40;99.90
15111;DHT22;7656;51.954;7.998;2023-02-01T02:12:21;6.40;99.90
15111;DHT22;7656;51.954;7.998;2023-02-01T02:16:55;6.20;99.90
15111;DHT22;7656;51.954;7.998;2023-02-01T02:42:01;6.30;99.90
15111;DHT22;7656;51.954;7.998;2023-02-01T02:47:07;6.30;99.90
15111;DHT22;7656;51.954;7.998;2023-02-01T02:52:02;6.20;99.90
15111;DHT22;7656;51.954;7.998;2023-02-01T02:56:54;6.30;99.90
15111;DHT22;7656;51.954;7.998;2023-02-01T03:01:34;6.40;99.90
15111;DHT22;7656;51.954;7.998;2023-02-01T03:06:16;6.10;99.90
15111;DHT22;7656;51.954;7.998;2023-02-01T03:15:10;6.20;99.90
15111;DHT22;7656;51.954;7.998;2023-02-01T03:19:40;6.00;99.90
15111;DHT22;7656;51.954;7.998;2023-02-01T03:24:14;6.10;99.90
15111;DHT22;7656;51.954;7.998;2023-02-01T03:29:05;6.30;99.90
15111;DHT22;7656;51.954;7.998;2023-02-01T03:33:36;6.10;99.90
15111;DHT22;7656;51.954;7.998;2023-02-01T03:38:04;6.20;99.90
15111;DHT22;7656;51.954;7.998;2023-02-01T03:42:38;6.10;99.90
15111;DHT22;7656;51.954;7.998;2023-02-01T03:47:09;6.20;99.90
15111;DHT22;7656;51.954;7.998;2023-02-01T03:51:36;6.20;99.90
15111;DHT22;7656;51.954;7.998;2023-02-01T03:55:59;6.20;99.90
15111;DHT22;7656;51.954;7.998;2023-02-01T04:00:24;6.10;99.90
15111;DHT22;7656;51.954;7.998;2023-02-01T04:04:46;6.10;99.90
15111;DHT22;7656;51.954;7.998;2023-02-01T04:09:10;6.30;99.90
15111;DHT22;7656;51.954;7.998;2023-02-01T04:13:31;6.30;99.90
15111;DHT22;7656;51.954;7.998;2023-02-01T04:17:52;6.20;99.90
15111;DHT22;7656;51.954;7.998;2023-02-01T04:22:13;6.20;99.90
15111;DHT22;7656;51.954;7.998;2023-02-01T04:26:34;6.20;99.90
15111;DHT22;7656;51.954;7.998;2023-02-01T04:30:56;6.30;99.90
15111;DHT22;7656;51.954;7.998;2023-02-01T04:35:17;6.40;99.90
15111;DHT22;7656;51.954;7.998;2023-02-01T04:39:38;6.20;99.90
15111;DHT22;7656;51.954;7.998;2023-02-01T04:43:59;6.30;99.90
15111;DHT22;7656;51.954;7.998;2023-02-01T04:48:21;6.30;99.90
15111;DHT22;7656;51.954;7.998;2023-02-01T04:52:42;6.20;99.90
15111;DHT22;7656;51.954;7.998;2023-02-01T04:57:03;6.20;99.90
15111;DHT22;7656;51.954;7.998;2023-02-01T05:01:24;6.40;99.90
15111;DHT22;7656;51.954;7.998;2023-02-01T05:05:47;6.20;99.90
15111;DHT22;7656;51.954;7.998;2023-02-01T05:10:09;6.20;99.90
15111;DHT22;7656;51.954;7.998;2023-02-01T05:14:31;6.10;99.90
15111;DHT22;7656;51.954;7.998;2023-02-01T05:18:52;6.10;99.90
15111;DHT22;7656;51.954;7.998;2023-02-01T05:23:14;6.10;99.90
15111;DHT22;7656;51.954;7.998;2023-02-01T05:27:35;6.30;99.90
15111;DHT22;7656;51.954;7.998;2023-02-01T05:31:56;6.30;99.90
15111;DHT22;7656;51.954;7.998;2023-02-01T05:36:17;6.50;99.90
15111;DHT22;7656;51.954;7.998;2023-02-01T05:40:38;6.60;99.90
15111;DHT22;7656;51.954;7.998;2023-02-01T05:44:59;6.80;99.90
15111;DHT22;7656;51.954;7.998;2023-02-01T05:49:21;6.70;99.90
15111;DHT22;7656;51.954;7.998;2023-02-01T05:53:42;6.70;99.90
15111;DHT22;7656;51.954;7.998;2023-02-01T05:58:04;6.60;99.90
15111;DHT22;7656;51.954;7.998;2023-02-01T06:02:26;6.50;99.90
15111;DHT22;7656;51.954;7.998;2023-02-01T06:06:47;6.30;99.90
15111;DHT22;7656;51.954;7.998;2023-02-01T06:11:11;6.20;99.90
15111;DHT22;7656;51.954;7.998;2023-02-01T06:15:34;6.20;99.90
15111;DHT22;7656;51.954;7.998;2023-02-01T06:19:55;6.20;99.90
15111;DHT22;7656;51.954;7.998;2023-02-01T06:24:16;6.20;99.90
15111;DHT22;7656;51.954;7.998;2023-02-01T06:28:37;6.20;99.90
15111;DHT22;7656;51.954;7.998;2023-02-01T06:32:59;6.10;99.90
15111;DHT22;7656;51.954;7.998;2023-02-01T06:37:21;6.10;99.90
15111;DHT22;7656;51.954;7.998;2023-02-01T06:41:47;6.20;99.90
15111;DHT22;7656;51.954;7.998;2023-02-01T06:46:12;6.20;99.90
15111;DHT22;7656;51.954;7.998;2023-02-01T06:50:33;6.20;99.90
15111;DHT22;7656;51.954;7.998;2023-02-01T06:54:55;6.20;99.90
15111;DHT22;7656;51.954;7.998;2023-02-01T06:59:17;6.20;99.90
15111;DHT22;7656;51.954;7.998;2023-02-01T07:03:38;6.20;99.90
15111;DHT22;7656;51.954;7.998;2023-02-01T07:07:59;6.30;99.90
15111;DHT22;7656;51.954;7.998;2023-02-01T07:12:20;6.30;99.90
15111;DHT22;7656;51.954;7.998;2023-02-01T07:16:41;6.30;99.90
15111;DHT22;7656;51.954;7.998;2023-02-01T07:21:02;6.10;99.90
15111;DHT22;7656;51.954;7.998;2023-02-01T07:25:25;6.20;99.90
15111;DHT22;7656;51.954;7.998;2023-02-01T07:29:46;6.30;99.90
15111;DHT22;7656;51.954;7.998;2023-02-01T07:34:07;6.20;99.90
15111;DHT22;7656;51.954;7.998;2023-02-01T07:38:28;6.20;99.90
15111;DHT22;7656;51.954;7.998;2023-02-01T07:42:49;6.20;99.90
15111;DHT22;7656;51.954;7.998;2023-02-01T07:47:10;6.40;99.90
15111;DHT22;7656;51.954;7.998;2023-02-01T07:51:31;6.40;99.90
15111;DHT22;7656;51.954;7.998;2023-02-01T07:55:52;6.50;99.90
15111;DHT22;7656;51.954;7.998;2023-02-01T08:00:14;6.50;99.90
15111;DHT22;7656;51.954;7.998;2023-02-01T08:04:54;6.50;99.90
15111;DHT22;7656;51.954;7.998;2023-02-01T08:09:15;6.70;99.90
15111;DHT22;7656;51.954;7.998;2023-02-01T08:13:36;6.90;99.90
15111;DHT22;7656;51.954;7.998;2023-02-01T08:17:57;6.80;99.90
15111;DHT22;7656;51.954;7.998;2023-02-01T08:35:34;11.80;99.90
15111;DHT22;7656;51.954;7.998;2023-02-01T08:39:56;11.70;99.90
15111;DHT22;7656;51.954;7.998;2023-02-01T08:44:17;10.50;99.90
15111;DHT22;7656;51.954;7.998;2023-02-01T08:48:38;9.50;99.90
15111;DHT22;7656;51.954;7.998;2023-02-01T08:53:00;9.00;99.90
15111;DHT22;7656;51.954;7.998;2023-02-01T08:57:21;8.70;99.90
15111;DHT22;7656;51.954;7.998;2023-02-01T09:01:42;8.50;99.90
15111;DHT22;7656;51.954;7.998;2023-02-01T09:06:05;8.30;99.90
15111;DHT22;7656;51.954;7.998;2023-02-01T09:10:27;8.10;99.90
15111;DHT22;7656;51.954;7.998;2023-02-01T09:14:48;7.90;99.90
15111;DHT22;7656;51.954;7.998;2023-02-01T09:19:09;7.80;99.90
15111;DHT22;7656;51.954;7.998;2023-02-01T09:23:31;7.70;99.90
15111;DHT22;7656;51.954;7.998;2023-02-01T09:27:52;7.80;99.90
15111;DHT22;7656;51.954;7.998;2023-02-01T09:32:13;7.70;99.90
15111;DHT22;7656;51.954;7.998;2023-02-01T09:36:34;7.90;99.90
15111;DHT22;7656;51.954;7.998;2023-02-01T09:40:56;8.00;99.90
15111;DHT22;7656;51.954;7.998;2023-02-01T09:45:22;8.00;99.90
15111;DHT22;7656;51.954;7.998;2023-02-01T09:50:14;8.10;99.90
15111;DHT22;7656;51.954;7.998;2023-02-01T09:54:52;8.30;99.90
15111;DHT22;7656;51.954;7.998;2023-02-01T09:59:38;8.50;99.90
15111;DHT22;7656;51.954;7.998;2023-02-01T10:04:05;8.50;99.90
15111;DHT22;7656;51.954;7.998;2023-02-01T10:27:46;8.60;99.90
15111;DHT22;7656;51.954;7.998;2023-02-01T10:32:20;8.70;99.90
15111;DHT22;7656;51.954;7.998;2023-02-01T10:37:01;8.70;99.90
15111;DHT22;7656;51.954;7.998;2023-02-01T10:41:40;8.40;99.90
15111;DHT22;7656;51.954;7.998;2023-02-01T10:46:04;8.50;99.90
15111;DHT22;7656;51.954;7.998;2023-02-01T10:50:38;8.50;99.90
15111;DHT22;7656;51.954;7.998;2023-02-01T10:55:51;8.60;99.90
15111;DHT22;7656;51.954;7.998;2023-02-01T11:00:20;8.40;99.90
15111;DHT22;7656;51.954;7.998;2023-02-01T11:04:42;8.40;99.90
15111;DHT22;7656;51.954;7.998;2023-02-01T11:13:33;8.30;99.90
15111;DHT22;7656;51.954;7.998;2023-02-01T11:18:18;8.40;99.90
15111;DHT22;7656;51.954;7.998;2023-02-01T11:22:52;8.50;99.90
15111;DHT22;7656;51.954;7.998;2023-02-01T11:27:18;8.70;99.90
15111;DHT22;7656;51.954;7.998;2023-02-01T11:31:41;8.70;99.90
15111;DHT22;7656;51.954;7.998;2023-02-01T11:36:09;8.60;99.90
15111;DHT22;7656;51.954;7.998;2023-02-01T11:40:37;8.40;99.90
15111;DHT22;7656;51.954;7.998;2023-02-01T11:45:29;8.30;99.90
15111;DHT22;7656;51.954;7.998;2023-02-01T11:49:54;8.20;99.90
15111;DHT22;7656;51.954;7.998;2023-02-01T11:54:25;7.90;99.90
15111;DHT22;7656;51.954;7.998;2023-02-01T12:04:13;7.60;99.90
15111;DHT22;7656;51.954;7.998;2023-02-01T12:14:13;7.40;99.90
15111;DHT22;7656;51.954;7.998;2023-02-01T12:18:58;7.50;99.90
15111;DHT22;7656;51.954;7.998;2023-02-01T12:38:44;6.80;99.90
15111;DHT22;7656;51.954;7.998;2023-02-01T12:43:14;6.90;99.90
15111;DHT22;7656;51.954;7.998;2023-02-01T12:47:50;6.90;99.90
15111;DHT22;7656;51.954;7.998;2023-02-01T12:52:55;7.00;99.90
15111;DHT22;7656;51.954;7.998;2023-02-01T12:57:14;6.90;99.90
15111;DHT22;7656;51.954;7.998;2023-02-01T13:01:45;6.90;99.90
15111;DHT22;7656;51.954;7.998;2023-02-01T13:06:19;7.00;99.90
15111;DHT22;7656;51.954;7.998;2023-02-01T13:10:52;7.10;99.90
15111;DHT22;7656;51.954;7.998;2023-02-01T13:15:32;7.20;99.90
15111;DHT22;7656;51.954;7.998;2023-02-01T13:20:09;7.10;99.90
15111;DHT22;7656;51.954;7.998;2023-02-01T13:24:46;7.20;99.90
15111;DHT22;7656;51.954;7.998;2023-02-01T13:29:11;7.50;99.90
15111;DHT22;7656;51.954;7.998;2023-02-01T13:38:46;7.70;99.90
15111;DHT22;7656;51.954;7.998;2023-02-01T13:43:22;7.60;99.90
15111;DHT22;7656;51.954;7.998;2023-02-01T13:47:46;7.80;99.90
15111;DHT22;7656;51.954;7.998;2023-02-01T13:52:39;7.70;99.90
15111;DHT22;7656;51.954;7.998;2023-02-01T13:57:03;7.70;99.90
15111;DHT22;7656;51.954;7.998;2023-02-01T14:15:24;8.00;99.90
15111;DHT22;7656;51.954;7.998;2023-02-01T14:19:47;8.00;99.90
15111;DHT22;7656;51.954;7.998;2023-02-01T14:28:29;7.90;99.90
15111;DHT22;7656;51.954;7.998;2023-02-01T14:32:51;7.60;99.90
15111;DHT22;7656;51.954;7.998;2023-02-01T14:41:40;7.50;99.90
15111;DHT22;7656;51.954;7.998;2023-02-01T14:46:03;7.50;99.90
15111;DHT22;7656;51.954;7.998;2023-02-01T14:55:02;7.50;99.90
15111;DHT22;7656;51.954;7.998;2023-02-01T14:59:30;7.10;99.90
15111;DHT22;7656;51.954;7.998;2023-02-01T15:08:35;6.70;99.90
15111;DHT22;7656;51.954;7.998;2023-02-01T15:13:00;6.80;99.90
15111;DHT22;7656;51.954;7.998;2023-02-01T15:17:26;6.90;99.90
15111;DHT22;7656;51.954;7.998;2023-02-01T15:21:56;7.10;99.90
15111;DHT22;7656;51.954;7.998;2023-02-01T15:26:28;7.10;99.90
15111;DHT22;7656;51.954;7.998;2023-02-01T15:30:56;7.10;99.90
15111;DHT22;7656;51.954;7.998;2023-02-01T15:49:03;6.80;99.90
15111;DHT22;7656;51.954;7.998;2023-02-01T15:53:25;6.60;99.90
15111;DHT22;7656;51.954;7.998;2023-02-01T15:57:51;6.30;99.90
15111;DHT22;7656;51.954;7.998;2023-02-01T16:07:31;6.20;99.90
15111;DHT22;7656;51.954;7.998;2023-02-01T16:12:00;6.20;99.90
15111;DHT22;7656;51.954;7.998;2023-02-01T16:16:23;6.20;99.90
15111;DHT22;7656;51.954;7.998;2023-02-01T16:20:47;6.20;99.90
15111;DHT22;7656;51.954;7.998;2023-02-01T16:25:08;6.60;99.90
15111;DHT22;7656;51.954;7.998;2023-02-01T16:29:29;6.50;99.90
15111;DHT22;7656;51.954;7.998;2023-02-01T16:33:51;6.20;99.90
15111;DHT22;7656;51.954;7.998;2023-02-01T16:38:14;5.90;99.90
15111;DHT22;7656;51.954;7.998;2023-02-01T16:42:39;5.80;99.90
15111;DHT22;7656;51.954;7.998;2023-02-01T16:47:00;5.80;99.90
15111;DHT22;7656;51.954;7.998;2023-02-01T16:51:22;5.90;99.90
15111;DHT22;7656;51.954;7.998;2023-02-01T16:55:44;6.10;99.90
15111;DHT22;7656;51.954;7.998;2023-02-01T17:00:10;6.20;99.90
15111;DHT22;7656;51.954;7.998;2023-02-01T17:04:32;6.50;99.90
15111;DHT22;7656;51.954;7.998;2023-02-01T17:08:57;6.70;99.90
15111;DHT22;7656;51.954;7.998;2023-02-01T17:13:19;6.90;99.90
15111;DHT22;7656;51.954;7.998;2023-02-01T17:17:40;7.00;99.90
15111;DHT22;7656;51.954;7.998;2023-02-01T17:22:03;6.90;99.90
15111;DHT22;7656;51.954;7.998;2023-02-01T17:26:24;6.90;99.90
15111;DHT22;7656;51.954;7.998;2023-02-01T17:30:46;6.80;99.90
15111;DHT22;7656;51.954;7.998;2023-02-01T17:35:22;6.60;99.90
15111;DHT22;7656;51.954;7.998;2023-02-01T17:39:45;6.50;99.90
15111;DHT22;7656;51.954;7.998;2023-02-01T17:44:15;6.50;99.90
15111;DHT22;7656;51.954;7.998;2023-02-01T17:48:36;6.40;99.90
15111;DHT22;7656;51.954;7.998;2023-02-01T17:52:57;6.40;99.90
15111;DHT22;7656;51.954;7.998;2023-02-01T17:57:18;6.60;99.90
15111;DHT22;7656;51.954;7.998;2023-02-01T18:01:39;6.80;99.90
15111;DHT22;7656;51.954;7.998;2023-02-01T18:06:02;6.90;99.90
15111;DHT22;7656;51.954;7.998;2023-02-01T18:10:23;7.00;99.90
15111;DHT22;7656;51.954;7.998;2023-02-01T18:14:44;7.10;99.90
15111;DHT22;7656;51.954;7.998;2023-02-01T18:19:05;7.10;99.90
15111;DHT22;7656;51.954;7.998;2023-02-01T18:23:26;7.00;99.90
15111;DHT22;7656;51.954;7.998;2023-02-01T18:27:49;6.90;99.90
15111;DHT22;7656;51.954;7.998;2023-02-01T18:32:12;6.80;99.90
15111;DHT22;7656;51.954;7.998;2023-02-01T18:36:33;6.90;99.90
15111;DHT22;7656;51.954;7.998;2023-02-01T18:40:55;6.90;99.90
15111;DHT22;7656;51.954;7.998;2023-02-01T18:45:25;6.90;99.90
15111;DHT22;7656;51.954;7.998;2023-02-01T18:49:49;6.70;99.90
15111;DHT22;7656;51.954;7.998;2023-02-01T18:54:10;6.50;99.90
15111;DHT22;7656;51.954;7.998;2023-02-01T18:58:32;6.40;99.90
15111;DHT22;7656;51.954;7.998;2023-02-01T19:02:53;6.40;99.90
15111;DHT22;7656;51.954;7.998;2023-02-01T19:07:14;6.50;99.90
15111;DHT22;7656;51.954;7.998;2023-02-01T19:11:35;6.50;99.90
15111;DHT22;7656;51.954;7.998;2023-02-01T19:15:56;6.50;99.90
15111;DHT22;7656;51.954;7.998;2023-02-01T19:20:20;6.40;99.90
15111;DHT22;7656;51.954;7.998;2023-02-01T19:24:42;6.40;99.90
15111;DHT22;7656;51.954;7.998;2023-02-01T19:29:03;6.50;99.90
15111;DHT22;7656;51.954;7.998;2023-02-01T19:33:24;6.60;99.90
15111;DHT22;7656;51.954;7.998;2023-02-01T19:37:47;6.60;99.90
15111;DHT22;7656;51.954;7.998;2023-02-01T19:42:08;6.50;99.90
15111;DHT22;7656;51.954;7.998;2023-02-01T19:46:29;6.40;99.90
15111;DHT22;7656;51.954;7.998;2023-02-01T19:50:51;6.20;99.90
15111;DHT22;7656;51.954;7.998;2023-02-01T19:55:12;6.30;99.90
15111;DHT22;7656;51.954;7.998;2023-02-01T19:59:34;6.20;99.90
15111;DHT22;7656;51.954;7.998;2023-02-01T20:03:55;6.30;99.90
15111;DHT22;7656;51.954;7.998;2023-02-01T20:08:22;6.20;99.90
15111;DHT22;7656;51.954;7.998;2023-02-01T20:12:43;6.40;99.90
15111;DHT22;7656;51.954;7.998;2023-02-01T20:17:13;6.60;99.90
15111;DHT22;7656;51.954;7.998;2023-02-01T20:21:36;6.40;99.90
15111;DHT22;7656;51.954;7.998;2023-02-01T20:26:02;6.40;99.90
15111;DHT22;7656;51.954;7.998;2023-02-01T20:30:24;6.60;99.90
15111;DHT22;7656;51.954;7.998;2023-02-01T20:34:45;6.80;99.90
15111;DHT22;7656;51.954;7.998;2023-02-01T20:39:10;6.90;99.90
15111;DHT22;7656;51.954;7.998;2023-02-01T20:43:32;6.80;99.90
15111;DHT22;7656;51.954;7.998;2023-02-01T20:47:53;6.60;99.90
15111;DHT22;7656;51.954;7.998;2023-02-01T20:52:15;6.60;99.90
15111;DHT22;7656;51.954;7.998;2023-02-01T20:56:36;6.60;99.90
15111;DHT22;7656;51.954;7.998;2023-02-01T21:00:59;6.60;99.90
15111;DHT22;7656;51.954;7.998;2023-02-01T21:05:20;6.50;99.90
15111;DHT22;7656;51.954;7.998;2023-02-01T21:09:41;6.70;99.90
15111;DHT22;7656;51.954;7.998;2023-02-01T21:14:03;6.80;99.90
15111;DHT22;7656;51.954;7.998;2023-02-01T21:18:25;6.80;99.90
15111;DHT22;7656;51.954;7.998;2023-02-01T21:22:46;6.80;99.90
15111;DHT22;7656;51.954;7.998;2023-02-01T21:27:08;6.70;99.90
15111;DHT22;7656;51.954;7.998;2023-02-01T21:31:29;6.50;99.90
15111;DHT22;7656;51.954;7.998;2023-02-01T21:35:50;6.40;99.90
15111;DHT22;7656;51.954;7.998;2023-02-01T21:40:12;6.40;99.90
15111;DHT22;7656;51.954;7.998;2023-02-01T21:44:34;6.30;99.90
15111;DHT22;7656;51.954;7.998;2023-02-01T21:48:55;6.40;99.90
15111;DHT22;7656;51.954;7.998;2023-02-01T21:53:16;6.40;99.90
15111;DHT22;7656;51.954;7.998;2023-02-01T21:57:37;6.40;99.90
15111;DHT22;7656;51.954;7.998;2023-02-01T22:01:58;6.50;99.90
15111;DHT22;7656;51.954;7.998;2023-02-01T22:06:26;6.50;99.90
15111;DHT22;7656;51.954;7.998;2023-02-01T22:10:49;6.50;99.90
15111;DHT22;7656;51.954;7.998;2023-02-01T22:15:10;6.50;99.90
15111;DHT22;7656;51.954;7.998;2023-02-01T22:19:31;6.40;99.90
15111;DHT22;7656;51.954;7.998;2023-02-01T22:23:54;6.40;99.90
15111;DHT22;7656;51.954;7.998;2023-02-01T22:28:17;6.40;99.90
15111;DHT22;7656;51.954;7.998;2023-02-01T22:32:38;6.50;99.90
15111;DHT22;7656;51.954;7.998;2023-02-01T22:36:59;6.40;99.90
15111;DHT22;7656;51.954;7.998;2023-02-01T22:41:20;6.40;99.90
15111;DHT22;7656;51.954;7.998;2023-02-01T22:45:41;6.30;99.90
15111;DHT22;7656;51.954;7.998;2023-02-01T22:50:02;6.30;99.90
15111;DHT22;7656;51.954;7.998;2023-02-01T22:54:23;6.50;99.90
15111;DHT22;7656;51.954;7.998;2023-02-01T22:58:44;6.60;99.90
15111;DHT22;7656;51.954;7.998;2023-02-01T23:03:06;6.50;99.90
15111;DHT22;7656;51.954;7.998;2023-02-01T23:07:27;6.50;99.90
15111;DHT22;7656;51.954;7.998;2023-02-01T23:11:48;6.60;99.90
15111;DHT22;7656;51.954;7.998;2023-02-01T23:16:11;6.60;99.90
15111;DHT22;7656;51.954;7.998;2023-02-01T23:20:33;6.60;99.90
15111;DHT22;7656;51.954;7.998;2023-02-01T23:24:54;6.30;99.90
15111;DHT22;7656;51.954;7.998;2023-02-01T23:29:17;6.20;99.90
15111;DHT22;7656;51.954;7.998;2023-02-01T23:33:39;6.10;99.90
15111;DHT22;7656;51.954;7.998;2023-02-01T23:38:00;6.20;99.90
15111;DHT22;7656;51.954;7.998;2023-02-01T23:42:21;6.30;99.90
15111;DHT22;7656;51.954;7.998;2023-02-01T23:46:43;6.30;99.90
15111;DHT22;7656;51.954;7.998;2023-02-01T23:51:07;6.20;99.90
15111;DHT22;7656;51.954;7.998;2023-02-01T23:55:28;6.30;99.90
15111;DHT22;7656;51.954;7.998;2023-02-01T23:59:49;6.40;99.90
